Time;durP1;ratioP1;P1;durP2;ratioP2;P2;SDS_P1;SDS_P2;PMS_P1;PMS_P2;Temp;Humidity;BMP_temperature;BMP_pressure;BME280_temperature;BME280_humidity;BME280_pressure;Samples;Min_cycle;Max_cycle;Signal;HPM_P1;HPM_P2
2021/04/26 00:00:54;;;;;;;2.50;1.52;;;;;;;6.29;68.42;100617.13;1758220;79;21150;-46
2021/04/26 00:03:23;;;;;;;2.40;1.65;;;;;;;6.17;67.88;100615.41;1766519;79;21166;-46
2021/04/26 00:05:50;;;;;;;3.75;1.67;;;;;;;6.04;67.41;100607.92;1727471;81;21149;-42
2021/04/26 00:08:18;;;;;;;2.90;1.50;;;;;;;5.95;68.06;100600.34;1771819;80;21142;-42
2021/04/26 00:10:47;;;;;;;2.10;1.37;;;;;;;5.92;69.30;100601.76;1767982;80;21142;-43
2021/04/26 00:13:15;;;;;;;2.22;1.47;;;;;;;5.92;69.30;100601.76;1756128;79;21577;-42
2021/04/26 00:15:43;;;;;;;3.72;1.75;;;;;;;5.93;70.34;100597.32;1763440;80;21170;-43
2021/04/26 00:18:12;;;;;;;2.40;1.67;;;;;;;5.85;69.32;100599.79;1760417;80;21142;-43
2021/04/26 00:20:41;;;;;;;3.12;1.62;;;;;;;5.76;68.20;100603.23;1768831;80;21604;-42
2021/04/26 00:23:10;;;;;;;4.00;2.08;;;;;;;5.69;67.89;100599.08;1739432;80;21636;-43
2021/04/26 00:25:38;;;;;;;2.55;1.47;;;;;;;5.68;67.87;100605.30;1731119;81;21550;-42
2021/04/26 00:28:07;;;;;;;1.55;1.22;;;;;;;5.67;68.32;100612.81;1768046;80;21157;-43
2021/04/26 00:30:36;;;;;;;2.17;1.50;;;;;;;5.68;69.24;100616.74;1775725;79;21150;-42
2021/04/26 00:33:04;;;;;;;3.77;1.80;;;;;;;5.60;68.63;100607.76;1776215;80;21652;-44
2021/04/26 00:35:32;;;;;;;2.72;1.30;;;;;;;5.54;69.10;100600.02;1768647;80;21134;-43
2021/04/26 00:38:01;;;;;;;3.60;1.52;;;;;;;5.51;69.60;100601.93;1734983;81;21126;-40
2021/04/26 00:40:30;;;;;;;3.02;1.65;;;;;;;5.54;70.03;100604.45;1712923;82;22062;-42
2021/04/26 00:42:57;;;;;;;2.75;1.42;;;;;;;5.56;70.31;100594.22;1721336;82;21139;-44
2021/04/26 00:45:25;;;;;;;5.90;1.80;;;;;;;5.55;70.58;100592.98;1772215;79;21141;-46
2021/04/26 00:47:53;;;;;;;1.92;1.17;;;;;;;5.47;70.22;100596.33;1775411;80;21109;-42
2021/04/26 00:50:27;;;;;;;2.27;1.30;;;;;;;5.38;70.10;100590.45;1774364;79;21114;-42
2021/04/26 00:52:55;;;;;;;2.67;1.92;;;;;;;5.33;70.11;100595.05;1775638;79;21569;-46
2021/04/26 00:55:32;;;;;;;4.10;1.37;;;;;;;5.30;70.06;100595.63;1708710;82;21116;-43
2021/04/26 00:58:01;;;;;;;3.22;1.70;;;;;;;5.21;70.47;100603.39;1778632;80;21142;-44
2021/04/26 01:00:30;;;;;;;2.87;1.57;;;;;;;5.16;70.83;100600.05;1773993;79;21562;-47
2021/04/26 01:02:57;;;;;;;3.08;1.80;;;;;;;5.14;71.42;100603.20;1775281;79;21134;-41
2021/04/26 01:05:28;;;;;;;5.80;1.50;;;;;;;5.10;71.11;100598.95;1771393;80;21129;-42
2021/04/26 01:07:57;;;;;;;2.42;1.42;;;;;;;5.06;71.62;100590.24;1774787;80;21162;-40
2021/04/26 01:10:28;;;;;;;2.50;1.20;;;;;;;5.01;71.66;100596.14;1768888;79;21145;-41
2021/04/26 01:13:35;;;;;;;3.23;1.27;;;;;;;4.96;71.78;100598.97;1768923;80;21565;-40
2021/04/26 01:16:19;;;;;;;1.42;1.10;;;;;;;4.94;72.25;100607.39;1775222;79;21158;-40
2021/04/26 01:19:38;;;;;;;1.90;1.37;;;;;;;4.91;72.20;100608.83;1682850;83;21585;-40
2021/04/26 01:22:46;;;;;;;1.85;1.25;;;;;;;4.86;72.94;100620.44;1767338;80;21134;-41
2021/04/26 01:25:20;;;;;;;1.45;1.10;;;;;;;4.75;73.34;100616.83;1769213;79;21115;-41
2021/04/26 01:28:26;;;;;;;2.08;1.27;;;;;;;4.64;73.63;100612.36;1772871;80;21127;-42
2021/04/26 01:31:04;;;;;;;2.37;1.72;;;;;;;4.57;74.08;100604.22;1770353;79;21158;-44
2021/04/26 01:33:51;;;;;;;3.95;2.27;;;;;;;4.46;74.76;100601.89;1769842;80;21173;-41
2021/04/26 01:36:24;;;;;;;3.15;2.10;;;;;;;4.35;75.33;100599.59;1705822;82;22002;-41
2021/04/26 01:38:56;;;;;;;2.70;1.62;;;;;;;4.34;75.86;100601.38;1760207;79;21190;-40
2021/04/26 01:41:26;;;;;;;3.25;2.08;;;;;;;4.34;76.30;100612.41;1772237;79;21469;-40
2021/04/26 01:43:55;;;;;;;4.15;2.30;;;;;;;4.32;76.68;100607.62;1771210;80;21126;-43
2021/04/26 01:46:23;;;;;;;3.92;2.92;;;;;;;4.31;77.12;100612.50;1764216;80;21170;-43
2021/04/26 01:48:52;;;;;;;5.10;2.83;;;;;;;4.28;77.34;100606.86;1765891;79;21146;-43
2021/04/26 01:51:20;;;;;;;2.95;2.10;;;;;;;4.30;77.43;100603.69;1772928;80;21152;-39
2021/04/26 01:53:48;;;;;;;2.95;1.87;;;;;;;4.31;77.27;100591.38;1771575;79;21118;-41
2021/04/26 01:56:17;;;;;;;3.80;2.37;;;;;;;4.27;77.25;100585.77;1724116;80;21114;-40
2021/04/26 01:58:53;;;;;;;3.08;1.82;;;;;;;4.32;77.22;100578.58;1779595;78;28349;-41
2021/04/26 02:01:23;;;;;;;2.90;1.90;;;;;;;4.32;77.06;100587.81;1745629;79;21124;-46
2021/04/26 02:03:59;;;;;;;2.17;1.30;;;;;;;4.39;76.65;100583.22;1775088;79;21105;-44
2021/04/26 02:06:37;;;;;;;3.22;1.30;;;;;;;4.40;76.62;100583.61;1774697;79;21115;-41
2021/04/26 02:09:25;;;;;;;2.40;1.20;;;;;;;4.42;76.60;100580.02;1766007;79;21152;-42
2021/04/26 02:11:56;;;;;;;2.50;1.07;;;;;;;4.44;76.61;100574.70;1772963;79;21089;-41
2021/04/26 02:14:26;;;;;;;1.45;0.93;;;;;;;4.46;76.69;100579.45;1739992;81;21716;-41
2021/04/26 02:16:54;;;;;;;2.17;1.27;;;;;;;4.51;76.85;100573.13;1719286;82;21114;-41
2021/04/26 02:19:22;;;;;;;2.40;1.22;;;;;;;4.57;76.90;100570.74;1674745;83;21163;-40
2021/04/26 02:21:49;;;;;;;1.87;1.22;;;;;;;4.63;77.09;100566.56;1725017;81;22340;-42
2021/04/26 02:24:17;;;;;;;1.60;1.27;;;;;;;4.71;77.17;100559.27;1692057;82;21323;-41
2021/04/26 02:26:45;;;;;;;1.22;0.95;;;;;;;4.78;77.17;100554.17;1692141;81;21126;-41
2021/04/26 02:29:13;;;;;;;1.52;0.78;;;;;;;4.86;77.08;100560.52;1717513;81;21190;-41
2021/04/26 02:31:45;;;;;;;2.70;1.15;;;;;;;4.91;76.95;100553.33;1720184;81;21157;-44
2021/04/26 02:34:20;;;;;;;2.05;0.80;;;;;;;4.95;76.75;100550.11;1699604;83;21137;-45
2021/04/26 02:36:51;;;;;;;1.37;0.95;;;;;;;5.00;76.56;100544.20;1711958;82;21191;-46
2021/04/26 02:39:19;;;;;;;2.42;1.30;;;;;;;4.99;76.25;100539.84;1683519;83;21170;-50
2021/04/26 02:41:47;;;;;;;1.85;1.17;;;;;;;4.98;76.07;100536.31;1696721;83;21201;-42
2021/04/26 02:44:25;;;;;;;2.80;0.98;;;;;;;4.94;75.91;100536.04;1693977;83;21555;-52
2021/04/26 02:47:03;;;;;;;2.42;1.42;;;;;;;4.93;75.82;100526.83;1657008;84;21182;-46
2021/04/26 02:49:31;;;;;;;4.00;1.67;;;;;;;4.93;75.79;100514.94;1691254;84;21823;-48
2021/04/26 02:52:00;;;;;;;2.62;1.10;;;;;;;4.93;75.74;100511.83;1717238;81;21142;-40
2021/04/26 02:54:27;;;;;;;3.12;1.15;;;;;;;4.94;75.74;100506.11;1719946;81;21565;-40
2021/04/26 02:56:57;;;;;;;3.55;1.50;;;;;;;4.96;75.76;100495.89;1690583;83;21186;-41
2021/04/26 02:59:25;;;;;;;1.50;1.00;;;;;;;4.97;75.71;100494.95;1712960;82;21155;-39
2021/04/26 03:01:55;;;;;;;2.22;1.42;;;;;;;4.99;75.58;100497.56;1715774;82;21163;-39
2021/04/26 03:04:29;;;;;;;2.10;1.32;;;;;;;5.01;75.35;100500.98;1710946;82;21606;-41
2021/04/26 03:07:01;;;;;;;3.05;1.27;;;;;;;4.98;74.98;100487.42;1683158;83;21195;-40
2021/04/26 03:09:37;;;;;;;2.98;1.17;;;;;;;4.98;74.89;100478.17;1799875;77;23331;-42
2021/04/26 03:12:06;;;;;;;2.05;1.25;;;;;;;4.89;74.93;100488.20;1781955;78;21133;-43
2021/04/26 03:14:37;;;;;;;2.27;1.40;;;;;;;4.86;75.02;100503.70;1785594;78;21149;-41
2021/04/26 03:17:05;;;;;;;1.95;1.40;;;;;;;4.84;75.18;100525.37;1774193;78;21190;-44
2021/04/26 03:19:33;;;;;;;2.95;1.65;;;;;;;4.86;75.19;100531.91;1748016;79;21134;-44
2021/04/26 03:22:02;;;;;;;2.47;1.35;;;;;;;4.89;75.25;100530.48;1772592;78;21166;-41
2021/04/26 03:24:30;;;;;;;1.55;1.15;;;;;;;4.90;75.35;100533.55;1779294;79;21647;-43
2021/04/26 03:26:59;;;;;;;1.45;1.02;;;;;;;4.90;75.34;100522.98;1781859;78;21157;-46
2021/04/26 03:29:28;;;;;;;2.40;1.15;;;;;;;4.92;75.40;100515.86;1778701;79;21114;-45
2021/04/26 03:31:56;;;;;;;2.50;1.05;;;;;;;4.95;75.46;100516.61;1720972;81;21182;-43
2021/04/26 03:34:26;;;;;;;1.60;1.20;;;;;;;4.97;75.44;100513.45;1705611;83;21316;-44
2021/04/26 03:36:54;;;;;;;2.65;1.47;;;;;;;5.00;75.36;100500.59;1706397;83;21673;-45
2021/04/26 03:39:21;;;;;;;1.65;1.20;;;;;;;5.02;75.22;100492.16;1713980;82;21146;-46
2021/04/26 03:41:51;;;;;;;4.87;1.50;;;;;;;5.03;75.08;100493.88;1711307;83;21158;-41
2021/04/26 03:44:20;;;;;;;3.40;1.20;;;;;;;5.04;74.97;100490.33;1684950;83;21645;-42
2021/04/26 03:47:11;;;;;;;3.08;1.95;;;;;;;5.08;74.79;100486.64;1801260;78;22954;-41
2021/04/26 03:49:56;;;;;;;1.55;0.95;;;;;;;5.04;74.83;100489.01;1697868;83;21212;-39
2021/04/26 03:52:42;;;;;;;2.10;1.42;;;;;;;5.05;74.61;100494.69;1698771;83;21172;-39
2021/04/26 03:55:25;;;;;;;1.80;1.07;;;;;;;5.09;74.54;100495.42;1799613;78;22951;-40
2021/04/26 03:57:53;;;;;;;1.85;1.15;;;;;;;5.04;74.52;100491.65;1747087;81;21185;-47
2021/04/26 04:00:22;;;;;;;2.10;1.30;;;;;;;5.05;74.61;100499.12;1715603;82;21162;-44
2021/04/26 04:02:51;;;;;;;1.82;1.10;;;;;;;5.04;74.58;100490.33;1723153;81;21280;-41
2021/04/26 04:05:21;;;;;;;2.08;1.25;;;;;;;5.03;74.68;100488.58;1721511;81;21170;-43
2021/04/26 04:07:50;;;;;;;2.10;1.30;;;;;;;5.02;74.76;100494.80;1687730;83;21340;-48
2021/04/26 04:10:43;;;;;;;2.65;1.30;;;;;;;5.07;74.77;100489.36;1797579;78;23064;-45
2021/04/26 04:13:30;;;;;;;3.42;1.70;;;;;;;5.03;74.55;100489.05;1776949;80;21637;-39
2021/04/26 04:15:59;;;;;;;1.98;1.15;;;;;;;5.01;74.40;100486.45;1771551;79;21122;-44
2021/04/26 04:18:26;;;;;;;3.12;1.50;;;;;;;4.99;74.57;100487.84;1770176;79;21098;-44
2021/04/26 04:20:55;;;;;;;1.37;1.02;;;;;;;5.01;74.64;100486.91;1713875;81;21662;-44
2021/04/26 04:23:23;;;;;;;2.67;1.42;;;;;;;5.02;74.73;100495.27;1742784;81;21157;-43
2021/04/26 04:25:51;;;;;;;2.20;1.42;;;;;;;5.02;74.74;100492.62;1715663;81;21197;-42
2021/04/26 04:28:20;;;;;;;2.30;1.20;;;;;;;5.04;74.74;100505.30;1689423;82;21603;-40
2021/04/26 04:30:47;;;;;;;2.10;1.42;;;;;;;5.03;74.69;100494.34;1727314;81;21166;-43
2021/04/26 04:33:15;;;;;;;1.75;1.32;;;;;;;5.04;74.59;100505.30;1711074;82;21188;-43
2021/04/26 04:36:00;;;;;;;2.08;1.30;;;;;;;5.05;74.63;100499.97;1696213;83;21141;-43
2021/04/26 04:38:46;;;;;;;2.02;1.10;;;;;;;5.05;74.55;100494.69;1697079;83;21160;-39
2021/04/26 04:41:32;;;;;;;1.87;1.10;;;;;;;5.04;74.58;100494.73;1698218;83;21279;-49
2021/04/26 04:44:00;;;;;;;1.60;1.20;;;;;;;5.04;74.63;100493.41;1703422;83;21554;-42
2021/04/26 04:46:29;;;;;;;1.82;1.25;;;;;;;5.03;74.78;100500.48;1701207;83;21562;-44
2021/04/26 04:48:58;;;;;;;3.45;1.20;;;;;;;5.03;74.90;100498.30;1698609;83;21695;-41
2021/04/26 04:51:26;;;;;;;1.27;1.12;;;;;;;5.02;74.92;100495.27;1672663;83;21165;-40
2021/04/26 04:53:56;;;;;;;2.33;1.20;;;;;;;5.03;74.98;100491.69;1699771;83;21122;-41
2021/04/26 04:56:25;;;;;;;2.72;1.05;;;;;;;5.04;74.98;100485.05;1700432;83;21161;-42
2021/04/26 04:58:54;;;;;;;3.05;1.85;;;;;;;5.06;75.24;100491.11;1701653;83;21158;-45
2021/04/26 05:01:22;;;;;;;2.17;1.40;;;;;;;5.12;75.94;100485.63;1672186;83;21142;-44
2021/04/26 05:04:08;;;;;;;1.02;0.90;;;;;;;5.19;76.09;100480.95;1697736;83;21627;-42
2021/04/26 05:06:47;;;;;;;1.82;1.00;;;;;;;5.24;75.87;100484.33;1795769;78;23059;-40
2021/04/26 05:09:33;;;;;;;2.05;1.17;;;;;;;5.21;75.59;100488.37;1775545;79;21272;-42
2021/04/26 05:12:18;;;;;;;2.30;1.00;;;;;;;5.21;75.43;100496.31;1724966;81;21140;-41
2021/04/26 05:14:52;;;;;;;1.70;0.98;;;;;;;5.20;75.20;100495.92;1715011;82;21149;-40
2021/04/26 05:17:20;;;;;;;1.82;1.07;;;;;;;5.18;75.13;100507.01;1719059;83;21185;-42
2021/04/26 05:19:48;;;;;;;1.62;1.22;;;;;;;5.14;75.33;100506.70;1718714;83;21164;-44
2021/04/26 05:22:15;;;;;;;1.60;1.20;;;;;;;5.13;75.49;100500.55;1723490;81;21141;-43
2021/04/26 05:24:44;;;;;;;1.70;1.30;;;;;;;5.16;75.47;100501.77;1723181;81;21161;-43
2021/04/26 05:27:12;;;;;;;2.30;0.90;;;;;;;5.17;75.33;100502.65;1738420;81;21153;-40
2021/04/26 05:29:39;;;;;;;1.12;0.82;;;;;;;5.13;74.67;100511.59;1735948;81;21173;-41
2021/04/26 05:32:07;;;;;;;1.87;1.00;;;;;;;5.01;74.48;100508.06;1714613;81;21161;-43
2021/04/26 05:34:35;;;;;;;1.85;1.25;;;;;;;4.95;74.93;100505.18;1750945;80;21147;-41
2021/04/26 05:37:03;;;;;;;3.08;1.35;;;;;;;4.94;75.30;100510.93;1713491;81;21680;-40
2021/04/26 05:39:30;;;;;;;2.25;1.35;;;;;;;4.91;75.64;100508.83;1741615;80;21126;-41
2021/04/26 05:41:58;;;;;;;2.20;1.32;;;;;;;4.89;75.84;100506.69;1744769;80;21142;-42
2021/04/26 05:44:26;;;;;;;1.90;1.30;;;;;;;4.87;75.71;100501.95;1750148;80;21166;-41
2021/04/26 05:47:02;;;;;;;2.08;1.15;;;;;;;4.91;75.79;100502.23;1745655;80;21683;-41
2021/04/26 05:49:29;;;;;;;3.25;1.35;;;;;;;4.91;75.80;100501.80;1745302;80;22027;-42
2021/04/26 05:51:57;;;;;;;2.33;1.50;;;;;;;4.94;75.90;100509.61;1748108;80;21137;-39
2021/04/26 05:54:25;;;;;;;2.42;1.70;;;;;;;4.96;75.93;100506.89;1714217;82;21589;-39
2021/04/26 05:56:53;;;;;;;2.35;1.27;;;;;;;4.93;75.96;100510.50;1697492;82;21146;-39
2021/04/26 05:59:21;;;;;;;3.45;1.70;;;;;;;4.94;76.20;100506.97;1688209;83;21634;-41
2021/04/26 06:01:51;;;;;;;1.47;1.00;;;;;;;4.95;75.98;100503.39;1682956;83;21182;-41
2021/04/26 06:04:18;;;;;;;2.37;1.72;;;;;;;4.94;75.96;100504.32;1684683;83;21791;-42
2021/04/26 06:06:46;;;;;;;3.83;1.65;;;;;;;4.96;76.18;100505.14;1668684;84;21150;-41
2021/04/26 06:09:16;;;;;;;2.30;1.52;;;;;;;4.97;75.89;100510.81;1726398;81;21921;-43
2021/04/26 06:11:44;;;;;;;2.20;1.35;;;;;;;4.95;76.09;100510.47;1728836;81;21598;-43
2021/04/26 06:14:12;;;;;;;2.95;1.40;;;;;;;4.96;76.13;100501.17;1730884;81;21316;-44
2021/04/26 06:16:40;;;;;;;2.58;1.62;;;;;;;4.98;76.13;100505.92;1729015;81;21157;-43
2021/04/26 06:19:08;;;;;;;3.12;1.65;;;;;;;4.93;76.12;100502.58;1732461;81;21138;-42
2021/04/26 06:21:36;;;;;;;3.05;1.60;;;;;;;4.89;76.37;100501.41;1733639;81;21284;-43
2021/04/26 06:24:06;;;;;;;2.02;1.45;;;;;;;4.84;76.31;100500.70;1729259;81;21146;-43
2021/04/26 06:26:34;;;;;;;1.80;1.40;;;;;;;4.81;76.67;100504.78;1728680;81;21606;-43
2021/04/26 06:29:02;;;;;;;1.98;1.50;;;;;;;4.80;76.75;100502.61;1727396;81;21174;-43
2021/04/26 06:31:31;;;;;;;3.20;1.22;;;;;;;4.82;76.72;100505.20;1732503;81;21127;-43
2021/04/26 06:33:59;;;;;;;4.22;2.20;;;;;;;4.87;77.02;100496.66;1731462;81;21171;-43
2021/04/26 06:36:28;;;;;;;1.92;1.22;;;;;;;4.92;77.28;100503.51;1724254;81;21150;-42
2021/04/26 06:38:57;;;;;;;3.35;1.60;;;;;;;4.94;77.06;100505.64;1731494;81;21149;-43
2021/04/26 06:41:26;;;;;;;3.20;1.42;;;;;;;4.97;76.57;100506.00;1736692;81;21158;-42
2021/04/26 06:43:54;;;;;;;3.95;1.80;;;;;;;5.02;75.99;100504.05;1734702;81;21111;-42
2021/04/26 06:46:23;;;;;;;3.62;2.15;;;;;;;5.04;75.75;100501.33;1731306;81;21939;-43
2021/04/26 06:48:51;;;;;;;4.37;3.12;;;;;;;5.04;75.50;100498.26;1731834;81;21558;-42
2021/04/26 06:51:18;;;;;;;5.95;4.15;;;;;;;5.06;75.42;100501.69;1728254;81;21594;-45
2021/04/26 06:53:46;;;;;;;3.72;3.20;;;;;;;5.07;75.03;100497.28;1728629;81;21174;-39
2021/04/26 06:56:14;;;;;;;9.58;5.47;;;;;;;5.10;75.01;100505.95;1724792;81;21127;-41
2021/04/26 06:58:41;;;;;;;6.85;4.53;;;;;;;5.18;74.63;100505.69;1736615;81;21186;-42
2021/04/26 07:01:10;;;;;;;4.95;4.10;;;;;;;5.20;74.47;100505.17;1728648;81;21977;-47
2021/04/26 07:03:39;;;;;;;9.55;6.87;;;;;;;5.21;73.85;100502.92;1723956;81;21145;-49
2021/04/26 07:06:07;;;;;;;7.17;4.85;;;;;;;5.25;73.53;100507.20;1724557;81;21609;-42
2021/04/26 07:08:35;;;;;;;11.97;8.65;;;;;;;5.31;73.65;100505.64;1724972;81;21166;-40
2021/04/26 07:11:03;;;;;;;17.80;12.63;;;;;;;5.41;73.64;100510.13;1720326;81;21141;-42
2021/04/26 07:13:31;;;;;;;9.10;6.60;;;;;;;5.48;72.89;100508.14;1723614;81;21301;-41
2021/04/26 07:15:58;;;;;;;10.93;5.30;;;;;;;5.50;72.90;100507.63;1721779;81;21150;-41
2021/04/26 07:18:26;;;;;;;7.25;4.08;;;;;;;5.54;72.68;100511.86;1725880;81;21134;-43
2021/04/26 07:20:54;;;;;;;4.47;3.22;;;;;;;5.53;72.41;100516.30;1726072;81;21122;-43
2021/04/26 07:23:21;;;;;;;3.12;2.70;;;;;;;5.54;72.61;100516.69;1725032;81;21657;-44
2021/04/26 07:26:42;;;;;;;4.50;3.08;;;;;;;5.55;71.16;100519.76;1725940;81;21942;-43
2021/04/26 07:30:06;;;;;;;5.70;3.30;;;;;;;5.58;71.13;100516.99;1816233;77;24674;-41
2021/04/26 07:32:34;;;;;;;4.75;3.33;;;;;;;5.58;71.60;100522.75;1790082;77;21181;-42
2021/04/26 07:35:02;;;;;;;5.60;2.83;;;;;;;5.63;71.95;100519.47;1767941;79;21166;-43
2021/04/26 07:37:30;;;;;;;3.25;2.37;;;;;;;5.64;72.15;100523.83;1766117;79;21231;-43
2021/04/26 07:39:58;;;;;;;3.77;2.98;;;;;;;5.68;72.87;100521.95;1761170;79;21125;-40
2021/04/26 07:42:25;;;;;;;5.95;3.50;;;;;;;5.74;72.94;100512.45;1764939;79;21585;-44
2021/04/26 07:44:53;;;;;;;3.75;2.37;;;;;;;5.79;72.81;100510.48;1764898;79;21153;-42
2021/04/26 07:47:21;;;;;;;4.55;2.60;;;;;;;5.83;72.53;100504.16;1765390;79;21309;-44
2021/04/26 07:49:49;;;;;;;3.95;2.30;;;;;;;5.88;72.38;100508.82;1769536;79;21556;-40
2021/04/26 07:52:18;;;;;;;3.95;2.47;;;;;;;5.99;72.20;100513.72;1727151;82;21561;-43
2021/04/26 07:54:48;;;;;;;3.77;2.85;;;;;;;6.07;71.97;100512.95;1724882;81;21106;-43
2021/04/26 07:57:16;;;;;;;6.03;3.60;;;;;;;6.16;71.12;100503.80;1726876;81;21629;-41
2021/04/26 07:59:44;;;;;;;3.58;2.85;;;;;;;6.22;70.11;100504.43;1727253;80;21705;-45
2021/04/26 08:02:12;;;;;;;4.53;3.12;;;;;;;6.27;69.36;100498.48;1711380;82;21173;-43
2021/04/26 08:04:39;;;;;;;6.33;2.98;;;;;;;6.33;69.08;100496.52;1732172;81;22084;-43
2021/04/26 08:07:07;;;;;;;4.83;3.20;;;;;;;6.44;69.20;100498.25;1704372;81;21150;-43
2021/04/26 08:09:36;;;;;;;5.75;3.58;;;;;;;6.58;68.50;100499.88;1726933;81;21127;-43
2021/04/26 08:12:06;;;;;;;3.77;2.60;;;;;;;6.71;68.12;100493.59;1709409;82;21134;-42
2021/04/26 08:14:33;;;;;;;6.05;3.80;;;;;;;6.84;68.15;100497.91;1728301;80;21554;-42
2021/04/26 08:17:01;;;;;;;8.20;4.15;;;;;;;6.88;66.35;100494.20;1730820;80;21122;-44
2021/04/26 08:19:29;;;;;;;5.55;3.98;;;;;;;6.89;65.90;100489.30;1695384;82;21166;-43
2021/04/26 08:21:56;;;;;;;7.03;4.92;;;;;;;6.98;65.06;100485.36;1727346;81;21157;-42
2021/04/26 08:24:26;;;;;;;5.87;4.20;;;;;;;7.03;64.64;100489.56;1727003;82;21272;-43
2021/04/26 08:26:57;;;;;;;8.40;4.53;;;;;;;7.09;65.21;100485.78;1708297;82;21122;-43
2021/04/26 08:29:25;;;;;;;5.90;4.45;;;;;;;7.09;65.21;100485.78;1772853;79;21136;-43
2021/04/26 08:31:53;;;;;;;8.93;4.10;;;;;;;7.22;65.92;100486.09;1729618;81;21150;-43
2021/04/26 08:34:21;;;;;;;7.05;4.05;;;;;;;7.35;65.73;100483.28;1730098;81;21169;-43
2021/04/26 08:36:49;;;;;;;6.60;4.00;;;;;;;7.47;65.18;100480.55;1722881;81;21126;-43
2021/04/26 08:39:17;;;;;;;7.58;4.50;;;;;;;7.54;64.87;100486.83;1716470;81;21131;-43
2021/04/26 08:41:46;;;;;;;8.20;4.30;;;;;;;7.55;65.04;100485.88;1758677;79;21806;-41
2021/04/26 08:44:15;;;;;;;9.55;4.78;;;;;;;7.55;65.04;100485.88;1721526;81;21136;-42
2021/04/26 08:46:43;;;;;;;5.00;3.98;;;;;;;7.68;64.97;100484.84;1755877;79;21166;-42
2021/04/26 08:49:12;;;;;;;13.15;5.22;;;;;;;7.91;64.19;100485.13;1757894;80;21165;-43
2021/04/26 08:51:40;;;;;;;10.82;3.98;;;;;;;8.16;63.42;100485.26;1758606;79;22022;-43
2021/04/26 08:54:08;;;;;;;13.32;5.00;;;;;;;8.33;62.08;100482.64;1759098;80;21299;-44
2021/04/26 08:56:36;;;;;;;14.68;5.08;;;;;;;8.47;61.08;100479.80;1758987;79;21158;-45
2021/04/26 08:59:05;;;;;;;6.97;4.28;;;;;;;8.56;61.36;100484.66;1758548;80;21153;-43
2021/04/26 09:01:33;;;;;;;6.62;3.22;;;;;;;8.62;61.00;100483.91;1722605;81;21530;-40
2021/04/26 09:04:10;;;;;;;5.62;3.75;;;;;;;8.69;59.85;100480.92;1756429;80;21180;-44
2021/04/26 09:07:01;;;;;;;7.03;4.20;;;;;;;8.76;59.79;100483.66;1754130;80;21766;-44
2021/04/26 09:09:38;;;;;;;14.45;5.17;;;;;;;8.79;60.06;100481.69;1717960;81;21563;-43
2021/04/26 09:12:13;;;;;;;7.67;3.87;;;;;;;8.79;59.16;100483.02;1715323;81;21135;-43
2021/04/26 09:14:52;;;;;;;8.73;3.37;;;;;;;8.77;58.43;100476.06;1709045;82;21477;-42
2021/04/26 09:17:35;;;;;;;4.85;3.52;;;;;;;8.79;57.50;100472.86;1753117;80;21693;-42
2021/04/26 09:20:20;;;;;;;6.87;3.62;;;;;;;8.79;57.19;100468.88;1756458;79;21812;-44
2021/04/26 09:22:57;;;;;;;6.85;3.40;;;;;;;8.84;57.59;100473.48;1752899;80;21143;-44
2021/04/26 09:25:37;;;;;;;7.53;3.85;;;;;;;8.88;56.64;100469.74;1754810;80;21432;-44
2021/04/26 09:28:13;;;;;;;8.03;3.95;;;;;;;8.87;55.99;100462.72;1756050;79;21107;-45
2021/04/26 09:30:57;;;;;;;4.15;2.12;;;;;;;8.85;55.89;100461.45;1753291;79;21122;-44
2021/04/26 09:33:34;;;;;;;3.12;1.30;;;;;;;8.86;54.55;100457.84;1754509;80;21163;-44
2021/04/26 09:36:23;;;;;;;1.35;0.82;;;;;;;8.88;48.91;100455.97;1749396;80;21169;-44
2021/04/26 09:38:53;;;;;;;2.75;0.95;;;;;;;8.88;44.02;100453.78;1744244;79;21173;-43
2021/04/26 09:41:24;;;;;;;2.40;1.00;;;;;;;8.81;41.42;100447.06;1761618;79;21123;-44
2021/04/26 09:44:03;;;;;;;2.02;1.57;;;;;;;8.79;42.25;100453.77;1750506;80;21577;-44
2021/04/26 09:46:41;;;;;;;1.32;0.95;;;;;;;8.80;39.44;100449.34;1745517;80;21162;-40
2021/04/26 09:49:22;;;;;;;2.90;1.10;;;;;;;8.80;41.95;100447.53;1739798;80;21145;-43
2021/04/26 09:51:56;;;;;;;1.72;0.90;;;;;;;8.82;42.13;100450.09;1743019;80;21137;-44
2021/04/26 09:54:41;;;;;;;2.60;1.47;;;;;;;8.86;42.29;100445.02;1755557;80;21538;-44
2021/04/26 09:57:09;;;;;;;2.00;1.20;;;;;;;8.92;42.57;100449.16;1702799;82;21141;-42
2021/04/26 09:59:38;;;;;;;2.45;1.12;;;;;;;8.94;39.80;100453.93;1700223;83;21115;-37
2021/04/26 10:02:07;;;;;;;3.40;1.10;;;;;;;8.84;40.02;100454.88;1696690;82;21130;-42
2021/04/26 10:04:36;;;;;;;3.33;1.15;;;;;;;8.80;41.62;100459.50;1684028;83;21585;-41
2021/04/26 10:07:05;;;;;;;2.05;1.10;;;;;;;8.74;42.22;100454.95;1695473;82;22081;-41
2021/04/26 10:09:35;;;;;;;0.70;0.60;;;;;;;8.66;40.29;100459.34;1734988;80;21128;-42
2021/04/26 10:12:06;;;;;;;1.90;1.15;;;;;;;8.59;40.83;100461.47;1706965;82;21154;-44
2021/04/26 10:14:34;;;;;;;2.12;0.80;;;;;;;8.49;41.35;100461.98;1670792;83;21166;-40
2021/04/26 10:17:11;;;;;;;2.20;1.17;;;;;;;8.40;41.29;100473.47;1653658;83;21604;-43
2021/04/26 10:19:47;;;;;;;3.25;1.35;;;;;;;8.35;41.20;100475.47;1702906;81;21125;-41
2021/04/26 10:22:35;;;;;;;1.85;0.98;;;;;;;8.31;42.35;100483.66;1714976;81;21261;-42
2021/04/26 10:25:05;;;;;;;1.60;1.00;;;;;;;8.23;41.44;100492.86;1706401;81;21168;-43
2021/04/26 10:27:39;;;;;;;1.45;0.80;;;;;;;8.15;41.55;100487.06;1705176;82;21181;-43
2021/04/26 10:30:11;;;;;;;1.50;0.70;;;;;;;8.07;42.74;100483.92;1770858;79;21582;-44
2021/04/26 10:32:59;;;;;;;1.10;0.62;;;;;;;8.07;37.44;100481.73;1772217;79;21904;-43
2021/04/26 10:35:47;;;;;;;0.85;0.60;;;;;;;8.09;37.87;100483.39;1770339;79;21141;-43
2021/04/26 10:38:47;;;;;;;0.85;0.42;;;;;;;8.16;38.09;100472.83;1763753;79;22088;-44
2021/04/26 10:41:54;;;;;;;3.80;0.90;;;;;;;8.26;38.39;100473.25;1765138;79;21107;-49
2021/04/26 10:44:47;;;;;;;0.95;0.70;;;;;;;8.38;39.43;100475.78;1767509;79;21102;-41
2021/04/26 10:47:24;;;;;;;3.98;1.20;;;;;;;8.47;39.26;100476.70;1770512;79;21590;-45
2021/04/26 10:50:07;;;;;;;1.98;1.02;;;;;;;8.57;40.05;100466.47;1733157;80;21172;-41
2021/04/26 10:52:42;;;;;;;1.62;0.90;;;;;;;8.63;39.65;100468.33;1692923;82;21134;-45
2021/04/26 10:55:14;;;;;;;1.85;0.95;;;;;;;8.66;38.84;100468.17;1761341;79;21150;-40
2021/04/26 10:57:47;;;;;;;3.10;1.25;;;;;;;8.70;41.34;100476.02;1730370;79;21170;-43
2021/04/26 11:00:32;;;;;;;2.15;1.60;;;;;;;8.72;40.06;100478.09;1741856;79;21136;-43
2021/04/26 11:03:14;;;;;;;1.55;0.85;;;;;;;8.72;39.57;100471.45;1758732;79;21578;-42
2021/04/26 11:05:44;;;;;;;2.35;1.40;;;;;;;8.70;38.17;100462.24;1770627;79;21106;-43
2021/04/26 11:08:39;;;;;;;1.12;0.75;;;;;;;8.72;39.81;100467.02;1760096;79;21152;-47
2021/04/26 11:11:14;;;;;;;1.87;0.93;;;;;;;8.79;37.14;100452.92;1670762;84;21166;-42
2021/04/26 11:13:54;;;;;;;2.15;0.90;;;;;;;8.92;35.14;100461.13;1670254;84;21186;-44
2021/04/26 11:16:30;;;;;;;1.57;0.90;;;;;;;8.99;35.37;100458.06;1668712;84;21288;-42
2021/04/26 11:19:07;;;;;;;1.25;0.85;;;;;;;9.09;38.28;100449.98;1654763;84;21153;-45
2021/04/26 11:21:50;;;;;;;4.35;1.10;;;;;;;9.23;35.04;100455.92;1673686;84;21140;-44
2021/04/26 11:24:30;;;;;;;1.42;0.80;;;;;;;9.26;34.50;100460.22;1672142;84;21163;-46
2021/04/26 11:27:18;;;;;;;1.15;0.68;;;;;;;9.23;36.34;100458.58;1661817;84;21219;-45
2021/04/26 11:29:53;;;;;;;2.62;1.15;;;;;;;9.18;37.07;100460.63;1662155;84;21187;-43
2021/04/26 11:32:23;;;;;;;1.47;0.88;;;;;;;9.18;37.43;100469.95;1658388;84;21191;-41
2021/04/26 11:34:59;;;;;;;1.20;0.95;;;;;;;9.20;36.70;100472.53;1629349;85;21319;-43
2021/04/26 11:37:52;;;;;;;3.12;1.30;;;;;;;9.20;37.30;100462.75;1787809;78;22678;-47
2021/04/26 11:40:27;;;;;;;4.20;1.05;;;;;;;9.19;37.38;100472.98;1775093;79;21154;-42
2021/04/26 11:43:05;;;;;;;1.70;1.15;;;;;;;9.25;38.30;100469.16;1766675;80;21165;-43
2021/04/26 11:45:39;;;;;;;1.52;1.02;;;;;;;9.39;37.19;100460.42;1802627;77;23136;-46
2021/04/26 11:48:21;;;;;;;1.22;1.10;;;;;;;9.43;36.51;100465.98;1769670;78;21139;-46
2021/04/26 11:50:55;;;;;;;1.35;1.02;;;;;;;9.58;37.49;100458.49;1759754;79;23063;-44
2021/04/26 11:53:26;;;;;;;1.75;0.70;;;;;;;9.61;33.60;100449.00;1737906;80;21128;-42
2021/04/26 11:55:54;;;;;;;1.85;0.93;;;;;;;9.66;32.41;100451.41;1735855;80;21612;-43
2021/04/26 11:58:26;;;;;;;1.27;0.88;;;;;;;9.66;33.57;100446.09;1735152;80;21624;-43
2021/04/26 12:01:09;;;;;;;1.72;0.98;;;;;;;9.62;32.14;100444.53;1736467;80;21138;-42